• Join FlightAware (Why Join?)
  • Login
  • US Flag 
06:44AM EST


 

Airport Tracker/Info


-or-


 

Live Flight TrackerFlight Track Log ✈ SWA118 ✈ 11-Sep-2013 ✈ KRNO - KLAS

Flight Track Log - Related Links

Times and Time Zones

All times are in EDT time to prevent confusion due to time zone crossing. See the SWA118 flight status page for this flight to view local times or setup timezone preferences in your user account.

Time Position Orientation Groundspeed Altitude Reporting Facility
EDT Latitude Longitude Course Direction KTS MPH feet Rate Location/Type
11:07AM 39.4667 -119.7667 180° South 174 200 5,600  Level Northern Cal TRACON
11:08AM 39.4167 -119.7667 180° South 236 272 7,500 2,340 Climbing Northern Cal TRACON
11:09AM 39.3500 -119.7667 180° South 260 299 10,300 2,580 Climbing Northern Cal TRACON
11:10AM 39.2667 -119.7333 163° South 347 399 12,700 2,940 Climbing Northern Cal TRACON
11:11AM 39.2000 -119.6333 131° Southeast 368 423 16,200 2,580 Climbing Northern Cal TRACON
11:13AM 39.0861 -119.5081 139° Southeast 376 433 19,000 2,100 Climbing Oakland Center
11:14AM 39.0050 -119.4119 137° Southeast 392 451 21,400 2,280 Climbing Oakland Center
11:15AM 38.9236 -119.3167 138° Southeast 398 458 23,700 2,100 Climbing Oakland Center
11:16AM 38.8419 -119.2119 135° Southeast 412 474 25,800 1,980 Climbing Oakland Center
11:17AM 38.7572 -119.1042 135° Southeast 427 491 27,800 1,560 Climbing Oakland Center
11:18AM 38.6703 -118.9953 136° Southeast 438 504 29,000 540 Climbing Oakland Center
11:19AM 38.5658 -118.8661 136° Southeast 437 503 29,000 720 Level Oakland Center
11:20AM 38.4794 -118.7597 136° Southeast 435 501 30,500 960 Climbing Oakland Center
11:21AM 38.3953 -118.6544 136° Southeast 427 491 31,000 240 Climbing Oakland Center
11:22AM 38.3119 -118.5514 136° Southeast 421 484 31,000  Level Oakland Center
11:23AM 38.2275 -118.4494 137° Southeast 419 482 31,000  Level Oakland Center
11:24AM 38.1439 -118.3456 136° Southeast 420 483 31,000  Level Oakland Center
11:25AM 38.0619 -118.2456 136° Southeast 423 487 31,000  Level Oakland Center
11:26AM 37.9644 -118.1272 136° Southeast 410 472 31,000  Level Oakland Center
11:27AM 37.8828 -118.0286 136° Southeast 408 470 31,000  Level Oakland Center
11:28AM 37.7997 -117.9294 137° Southeast 412 474 31,000  Level Oakland Center
11:29AM 37.7117 -117.8233 136° Southeast 433 498 31,000  Level Oakland Center
11:30AM 37.6233 -117.7178 137° Southeast 438 504 31,000  Level Oakland Center
11:31AM 37.5358 -117.6117 136° Southeast 438 504 31,000  Level Oakland Center
11:32AM 37.4467 -117.5067 137° Southeast 440 506 31,000  Level Oakland Center
11:33AM 37.3567 -117.4000 137° Southeast 444 511 31,000  Level Oakland Center
11:34AM 37.2489 -117.2717 137° Southeast 445 512 31,000  Level Los Angeles Center
11:35AM 37.1764 -117.1869 137° Southeast 445 512 31,000 -540 Level Los Angeles Center
11:36AM 37.0697 -117.0606 137° Southeast 440 506 29,900 -960 Descending Los Angeles Center
11:37AM 36.9792 -116.9558 137° Southeast 442 509 29,000 -480 Descending Los Angeles Center
11:38AM 36.8889 -116.8492 137° Southeast 445 512 29,000 -660 Level Los Angeles Center
11:40AM 36.7822 -116.7219 136° Southeast 442 509 27,700 -1,200 Descending Los Angeles Center
11:41AM 36.7064 -116.6108 130° Southeast 423 487 26,600 -1,020 Descending Los Angeles Center
11:42AM 36.6297 -116.5017 131° Southeast 420 483 25,600 -1,020 Descending Los Angeles Center
11:43AM 36.5536 -116.3933 131° Southeast 417 480 24,600 -1,140 Descending Los Angeles Center
11:44AM 36.4714 -116.2783 132° Southeast 417 480 23,300 -1,860 Descending Los Angeles Center
11:45AM 36.3917 -116.1622 130° Southeast 412 474 20,800 -2,400 Descending Los Angeles Center
11:46AM 36.3006 -116.0400 133° Southeast 396 456 18,100 -2,220 Descending Los Angeles Center
11:47AM 36.2425 -115.9544 130° Southeast 385 443 16,300 -2,100 Descending Los Angeles Center
11:47AM 36.2339 -115.9469 145° Southeast 386 444 16,200 -300 Descending Los Angeles Center
11:48AM 36.1917 -115.8664 123° Southeast 374 430 16,000 -180 Descending Los Angeles Center
11:48AM 36.1792 -115.8314 114° Southeast 371 427 16,000 -600 Level Los Angeles Center
11:49AM 36.1444 -115.7219 111° Southeast 370 426 15,400 -840 Descending Los Angeles Center
11:49AM 36.1350 -115.6942 113° Southeast 369 425 15,100 -1,500 Descending Los Angeles Center
11:50AM 36.1047 -115.6008 112° Southeast 354 407 13,900 -1,500 Descending Los Angeles Center
11:50AM 36.0992 -115.5861 115° Southeast 337 388 13,600 -1,500 Descending Los Angeles Center
11:51AM 36.0661 -115.4825 112° Southeast 330 380 12,100 -1,440 Descending Los Angeles Center
11:52AM 36.0364 -115.3897 112° Southeast 321 369 11,000 -1,200 Descending Los Angeles Center
11:52AM 36.0378 -115.3908 327° Northwest 296 341 11,000 -900 Level Los Angeles Center
11:53AM 36.0256 -115.2900 98° East 303 349 10,100 -900 Descending Los Angeles Center
11:53AM 36.0250 -115.2914 244° Southwest 286 329 10,100 -1,200 Level Los Angeles Center
11:54AM 36.0178 -115.1931 95° East 290 334 8,900 -1,080 Descending Los Angeles Center
11:55AM 36.0114 -115.1003 95° East 278 320 8,000 -840 Descending Los Angeles Center
11:55AM 36.0103 -115.0836 95° East 260 299 8,000  Level Los Angeles Center
11:56AM 36.0275 -115.0247 70° East 207 238 8,000  Level Los Angeles Center
11:56AM 36.0239 -115.0261 197° South 238 274 8,000 -720 Level Los Angeles Center
11:57AM 36.0725 -114.9831 36° Northeast 193 222 7,300 -540 Descending Los Angeles Center
11:57AM 36.0644 -114.9836 183° South 201 231 7,500 -1,380 Climbing Los Angeles Center
11:58AM 36.1239 -114.9608 17° North 196 226 5,900 -1,380 Descending Los Angeles Center
11:58AM 36.1144 -114.9572 163° South 196 226 6,100 -1,140 Climbing Los Angeles Center
11:59AM 36.1383 -115.0172 296° West 183 211 4,800 -1,260 Descending Los Angeles Center
11:59AM 36.1375 -115.0164 141° Southeast 183 211 4,800 -1,380 Level Los Angeles Center
12:00PM 36.1408 -115.0883 273° West 186 214 3,300 -1,380 Descending Los Angeles Center
12:00PM 36.1408 -115.0806 90° East 183 211 3,400 -600 Climbing Los Angeles Center
12:01PM 36.1297 -115.1372 256° West 150 173 2,700 -600 Descending Los Angeles Center
12:01PM 36.1328 -115.1322 53° Northeast 173 199 2,800 -480 Climbing Los Angeles Center
12:02PM 36.0928 -115.1561 206° Southwest 162 186 2,200 -600 Descending Los Angeles Center
12:04PM 36.0801 -115.1523 95° East  Level Estimated